sensor_id;sensor_type;location;lat;lon;timestamp;P1;durP1;ratioP1;P2;durP2;ratioP2
25231;SDS011;13176;51.140;6.290;2023-12-07T00:02:20;33.08;;;30.38;;
25231;SDS011;13176;51.140;6.290;2023-12-07T00:04:47;30.10;;;27.80;;
25231;SDS011;13176;51.140;6.290;2023-12-07T00:07:14;31.13;;;28.52;;
25231;SDS011;13176;51.140;6.290;2023-12-07T00:09:40;31.58;;;28.92;;
25231;SDS011;13176;51.140;6.290;2023-12-07T00:12:07;33.88;;;31.08;;
25231;SDS011;13176;51.140;6.290;2023-12-07T00:14:34;31.55;;;28.98;;
25231;SDS011;13176;51.140;6.290;2023-12-07T00:17:00;31.58;;;29.23;;
25231;SDS011;13176;51.140;6.290;2023-12-07T00:19:29;33.88;;;30.95;;
25231;SDS011;13176;51.140;6.290;2023-12-07T00:21:56;34.35;;;31.67;;
25231;SDS011;13176;51.140;6.290;2023-12-07T00:24:23;33.20;;;30.60;;
25231;SDS011;13176;51.140;6.290;2023-12-07T00:26:49;33.40;;;30.63;;
25231;SDS011;13176;51.140;6.290;2023-12-07T00:29:15;33.42;;;30.33;;
25231;SDS011;13176;51.140;6.290;2023-12-07T00:31:42;32.88;;;30.17;;
25231;SDS011;13176;51.140;6.290;2023-12-07T00:34:10;31.35;;;28.67;;
25231;SDS011;13176;51.140;6.290;2023-12-07T00:36:36;33.47;;;30.23;;
25231;SDS011;13176;51.140;6.290;2023-12-07T00:39:03;32.17;;;29.35;;
25231;SDS011;13176;51.140;6.290;2023-12-07T00:41:30;31.23;;;28.42;;
25231;SDS011;13176;51.140;6.290;2023-12-07T00:43:56;32.60;;;29.98;;
25231;SDS011;13176;51.140;6.290;2023-12-07T00:46:23;32.65;;;30.00;;
25231;SDS011;13176;51.140;6.290;2023-12-07T00:48:49;28.17;;;25.90;;
25231;SDS011;13176;51.140;6.290;2023-12-07T00:51:16;30.55;;;28.20;;
25231;SDS011;13176;51.140;6.290;2023-12-07T00:53:43;30.30;;;27.80;;
25231;SDS011;13176;51.140;6.290;2023-12-07T00:56:09;30.15;;;27.55;;
25231;SDS011;13176;51.140;6.290;2023-12-07T00:58:36;30.52;;;27.92;;
25231;SDS011;13176;51.140;6.290;2023-12-07T01:01:04;31.70;;;28.65;;
25231;SDS011;13176;51.140;6.290;2023-12-07T01:03:31;30.17;;;27.27;;
25231;SDS011;13176;51.140;6.290;2023-12-07T01:06:00;29.70;;;26.92;;
25231;SDS011;13176;51.140;6.290;2023-12-07T01:08:26;28.77;;;26.38;;
25231;SDS011;13176;51.140;6.290;2023-12-07T01:10:53;28.90;;;26.20;;
25231;SDS011;13176;51.140;6.290;2023-12-07T01:13:19;29.48;;;26.95;;
25231;SDS011;13176;51.140;6.290;2023-12-07T01:15:46;29.65;;;27.02;;
25231;SDS011;13176;51.140;6.290;2023-12-07T01:18:12;30.90;;;28.20;;
25231;SDS011;13176;51.140;6.290;2023-12-07T01:20:39;29.48;;;27.10;;
25231;SDS011;13176;51.140;6.290;2023-12-07T01:23:05;26.85;;;24.67;;
25231;SDS011;13176;51.140;6.290;2023-12-07T01:25:31;28.25;;;25.75;;
25231;SDS011;13176;51.140;6.290;2023-12-07T01:27:58;28.27;;;25.88;;
25231;SDS011;13176;51.140;6.290;2023-12-07T01:30:25;27.98;;;25.60;;
25231;SDS011;13176;51.140;6.290;2023-12-07T01:32:52;28.27;;;26.02;;
25231;SDS011;13176;51.140;6.290;2023-12-07T01:35:18;28.35;;;25.88;;
25231;SDS011;13176;51.140;6.290;2023-12-07T01:37:45;28.90;;;26.42;;
25231;SDS011;13176;51.140;6.290;2023-12-07T01:40:11;27.30;;;25.10;;
25231;SDS011;13176;51.140;6.290;2023-12-07T01:42:38;26.83;;;24.58;;
25231;SDS011;13176;51.140;6.290;2023-12-07T01:45:05;26.83;;;24.48;;
25231;SDS011;13176;51.140;6.290;2023-12-07T01:47:33;26.55;;;24.20;;
25231;SDS011;13176;51.140;6.290;2023-12-07T01:50:02;25.65;;;23.45;;
25231;SDS011;13176;51.140;6.290;2023-12-07T01:52:31;26.33;;;24.15;;
25231;SDS011;13176;51.140;6.290;2023-12-07T01:55:00;26.92;;;24.48;;
25231;SDS011;13176;51.140;6.290;2023-12-07T01:57:27;25.67;;;23.65;;
25231;SDS011;13176;51.140;6.290;2023-12-07T01:59:54;26.88;;;24.08;;
25231;SDS011;13176;51.140;6.290;2023-12-07T02:02:20;24.83;;;22.52;;
25231;SDS011;13176;51.140;6.290;2023-12-07T02:04:47;25.98;;;23.92;;
25231;SDS011;13176;51.140;6.290;2023-12-07T02:07:14;27.58;;;25.17;;
25231;SDS011;13176;51.140;6.290;2023-12-07T02:09:41;27.58;;;25.23;;
25231;SDS011;13176;51.140;6.290;2023-12-07T02:12:08;29.48;;;26.42;;
25231;SDS011;13176;51.140;6.290;2023-12-07T02:14:34;27.60;;;25.40;;
25231;SDS011;13176;51.140;6.290;2023-12-07T02:17:03;30.08;;;27.27;;
25231;SDS011;13176;51.140;6.290;2023-12-07T02:22:32;31.27;;;28.17;;
25231;SDS011;13176;51.140;6.290;2023-12-07T02:25:06;37.88;;;33.60;;
25231;SDS011;13176;51.140;6.290;2023-12-07T02:27:35;43.30;;;38.60;;
25231;SDS011;13176;51.140;6.290;2023-12-07T02:30:02;48.08;;;42.65;;
25231;SDS011;13176;51.140;6.290;2023-12-07T02:32:28;49.65;;;44.38;;
25231;SDS011;13176;51.140;6.290;2023-12-07T02:34:55;51.35;;;46.35;;
25231;SDS011;13176;51.140;6.290;2023-12-07T02:37:22;51.05;;;46.05;;
25231;SDS011;13176;51.140;6.290;2023-12-07T02:39:53;54.40;;;48.63;;
25231;SDS011;13176;51.140;6.290;2023-12-07T02:42:22;70.18;;;52.17;;
25231;SDS011;13176;51.140;6.290;2023-12-07T02:44:51;70.95;;;55.60;;
25231;SDS011;13176;51.140;6.290;2023-12-07T02:47:18;165.70;;;60.85;;
25231;SDS011;13176;51.140;6.290;2023-12-07T02:49:44;224.85;;;62.33;;
25231;SDS011;13176;51.140;6.290;2023-12-07T02:52:11;343.30;;;73.47;;
25231;SDS011;13176;51.140;6.290;2023-12-07T02:54:37;279.38;;;65.28;;
25231;SDS011;13176;51.140;6.290;2023-12-07T02:57:04;300.15;;;65.72;;
25231;SDS011;13176;51.140;6.290;2023-12-07T02:59:30;90.53;;;50.13;;
25231;SDS011;13176;51.140;6.290;2023-12-07T03:01:57;60.65;;;49.42;;
25231;SDS011;13176;51.140;6.290;2023-12-07T03:04:23;96.13;;;47.42;;
25231;SDS011;13176;51.140;6.290;2023-12-07T03:06:49;333.73;;;64.43;;
25231;SDS011;13176;51.140;6.290;2023-12-07T03:09:16;181.10;;;57.97;;
25231;SDS011;13176;51.140;6.290;2023-12-07T03:11:42;199.07;;;58.65;;
25231;SDS011;13176;51.140;6.290;2023-12-07T03:14:09;126.85;;;55.63;;
25231;SDS011;13176;51.140;6.290;2023-12-07T03:16:35;525.38;;;86.22;;
25231;SDS011;13176;51.140;6.290;2023-12-07T03:19:02;265.50;;;64.05;;
25231;SDS011;13176;51.140;6.290;2023-12-07T03:21:29;452.27;;;78.03;;
25231;SDS011;13176;51.140;6.290;2023-12-07T03:23:55;284.23;;;63.58;;
25231;SDS011;13176;51.140;6.290;2023-12-07T03:26:21;251.98;;;64.70;;
25231;SDS011;13176;51.140;6.290;2023-12-07T03:28:48;269.77;;;61.88;;
25231;SDS011;13176;51.140;6.290;2023-12-07T03:31:14;362.77;;;67.90;;
25231;SDS011;13176;51.140;6.290;2023-12-07T03:33:44;455.02;;;76.82;;
25231;SDS011;13176;51.140;6.290;2023-12-07T03:36:11;362.25;;;68.32;;
25231;SDS011;13176;51.140;6.290;2023-12-07T03:38:38;320.70;;;65.15;;
25231;SDS011;13176;51.140;6.290;2023-12-07T03:41:04;512.80;;;78.05;;
25231;SDS011;13176;51.140;6.290;2023-12-07T03:43:30;92.32;;;47.72;;
25231;SDS011;13176;51.140;6.290;2023-12-07T03:45:57;100.05;;;52.63;;
25231;SDS011;13176;51.140;6.290;2023-12-07T03:48:23;121.05;;;53.38;;
25231;SDS011;13176;51.140;6.290;2023-12-07T03:50:50;273.00;;;63.42;;
25231;SDS011;13176;51.140;6.290;2023-12-07T03:53:17;333.00;;;65.40;;
25231;SDS011;13176;51.140;6.290;2023-12-07T03:55:43;208.80;;;62.88;;
25231;SDS011;13176;51.140;6.290;2023-12-07T03:58:10;124.93;;;54.75;;
25231;SDS011;13176;51.140;6.290;2023-12-07T04:00:37;252.77;;;61.90;;
25231;SDS011;13176;51.140;6.290;2023-12-07T04:03:03;192.82;;;58.75;;
25231;SDS011;13176;51.140;6.290;2023-12-07T04:05:30;233.63;;;58.78;;
25231;SDS011;13176;51.140;6.290;2023-12-07T04:07:57;223.02;;;59.55;;
25231;SDS011;13176;51.140;6.290;2023-12-07T04:10:23;80.13;;;48.88;;
25231;SDS011;13176;51.140;6.290;2023-12-07T04:12:50;305.35;;;67.43;;
25231;SDS011;13176;51.140;6.290;2023-12-07T04:15:19;206.70;;;56.40;;
25231;SDS011;13176;51.140;6.290;2023-12-07T04:17:46;91.90;;;52.58;;
25231;SDS011;13176;51.140;6.290;2023-12-07T04:20:13;161.73;;;57.28;;
25231;SDS011;13176;51.140;6.290;2023-12-07T04:22:39;87.05;;;52.15;;
25231;SDS011;13176;51.140;6.290;2023-12-07T04:25:06;104.15;;;54.10;;
25231;SDS011;13176;51.140;6.290;2023-12-07T04:27:33;200.05;;;58.25;;
25231;SDS011;13176;51.140;6.290;2023-12-07T04:30:00;356.98;;;66.93;;
25231;SDS011;13176;51.140;6.290;2023-12-07T04:32:26;187.88;;;59.50;;
25231;SDS011;13176;51.140;6.290;2023-12-07T04:34:53;108.07;;;55.45;;
25231;SDS011;13176;51.140;6.290;2023-12-07T04:37:19;147.23;;;55.45;;
25231;SDS011;13176;51.140;6.290;2023-12-07T04:39:46;241.38;;;62.45;;
25231;SDS011;13176;51.140;6.290;2023-12-07T04:42:12;417.95;;;69.90;;
25231;SDS011;13176;51.140;6.290;2023-12-07T04:44:39;127.30;;;57.97;;
25231;SDS011;13176;51.140;6.290;2023-12-07T04:47:05;271.58;;;64.07;;
25231;SDS011;13176;51.140;6.290;2023-12-07T04:49:32;175.85;;;58.65;;
25231;SDS011;13176;51.140;6.290;2023-12-07T04:51:58;182.68;;;59.28;;
25231;SDS011;13176;51.140;6.290;2023-12-07T04:54:24;169.65;;;57.45;;
25231;SDS011;13176;51.140;6.290;2023-12-07T04:56:52;197.93;;;58.95;;
25231;SDS011;13176;51.140;6.290;2023-12-07T04:59:18;278.15;;;63.13;;
25231;SDS011;13176;51.140;6.290;2023-12-07T05:01:46;192.38;;;59.28;;
25231;SDS011;13176;51.140;6.290;2023-12-07T05:04:13;61.60;;;49.80;;
25231;SDS011;13176;51.140;6.290;2023-12-07T05:06:40;96.05;;;53.42;;
25231;SDS011;13176;51.140;6.290;2023-12-07T05:09:06;64.88;;;50.67;;
25231;SDS011;13176;51.140;6.290;2023-12-07T05:11:35;79.80;;;50.60;;
25231;SDS011;13176;51.140;6.290;2023-12-07T05:14:02;85.18;;;54.35;;
25231;SDS011;13176;51.140;6.290;2023-12-07T05:16:29;94.70;;;53.67;;
25231;SDS011;13176;51.140;6.290;2023-12-07T05:18:56;91.20;;;55.80;;
25231;SDS011;13176;51.140;6.290;2023-12-07T05:21:22;68.22;;;54.25;;
25231;SDS011;13176;51.140;6.290;2023-12-07T05:23:49;75.90;;;55.83;;
25231;SDS011;13176;51.140;6.290;2023-12-07T05:26:15;63.53;;;51.38;;
25231;SDS011;13176;51.140;6.290;2023-12-07T05:28:41;63.65;;;54.05;;
25231;SDS011;13176;51.140;6.290;2023-12-07T05:31:09;64.18;;;55.13;;
25231;SDS011;13176;51.140;6.290;2023-12-07T05:33:35;69.25;;;56.75;;
25231;SDS011;13176;51.140;6.290;2023-12-07T05:36:01;72.65;;;56.33;;
25231;SDS011;13176;51.140;6.290;2023-12-07T05:38:29;73.78;;;57.65;;
25231;SDS011;13176;51.140;6.290;2023-12-07T05:40:56;73.50;;;57.25;;
25231;SDS011;13176;51.140;6.290;2023-12-07T05:43:22;72.30;;;57.42;;
25231;SDS011;13176;51.140;6.290;2023-12-07T05:45:49;80.07;;;58.05;;
25231;SDS011;13176;51.140;6.290;2023-12-07T05:48:15;74.88;;;58.72;;
25231;SDS011;13176;51.140;6.290;2023-12-07T05:50:42;72.32;;;55.03;;
25231;SDS011;13176;51.140;6.290;2023-12-07T05:53:08;68.95;;;56.17;;
25231;SDS011;13176;51.140;6.290;2023-12-07T05:55:35;68.32;;;58.17;;
25231;SDS011;13176;51.140;6.290;2023-12-07T05:58:01;67.28;;;55.50;;
25231;SDS011;13176;51.140;6.290;2023-12-07T06:00:29;64.78;;;57.00;;
25231;SDS011;13176;51.140;6.290;2023-12-07T06:02:56;74.80;;;60.33;;
25231;SDS011;13176;51.140;6.290;2023-12-07T06:05:22;67.53;;;55.55;;
25231;SDS011;13176;51.140;6.290;2023-12-07T06:07:49;62.22;;;55.40;;
25231;SDS011;13176;51.140;6.290;2023-12-07T06:10:23;76.95;;;59.22;;
25231;SDS011;13176;51.140;6.290;2023-12-07T06:12:49;76.80;;;55.60;;
25231;SDS011;13176;51.140;6.290;2023-12-07T06:15:21;64.22;;;57.28;;
25231;SDS011;13176;51.140;6.290;2023-12-07T06:17:48;64.22;;;57.33;;
25231;SDS011;13176;51.140;6.290;2023-12-07T06:20:14;63.05;;;56.45;;
25231;SDS011;13176;51.140;6.290;2023-12-07T06:22:41;66.82;;;59.72;;
25231;SDS011;13176;51.140;6.290;2023-12-07T06:25:08;70.32;;;57.53;;
25231;SDS011;13176;51.140;6.290;2023-12-07T06:27:35;139.25;;;61.38;;
25231;SDS011;13176;51.140;6.290;2023-12-07T06:30:02;88.97;;;56.65;;
25231;SDS011;13176;51.140;6.290;2023-12-07T06:32:32;58.75;;;52.53;;
25231;SDS011;13176;51.140;6.290;2023-12-07T06:34:58;83.03;;;55.17;;
25231;SDS011;13176;51.140;6.290;2023-12-07T06:37:25;55.75;;;50.20;;
25231;SDS011;13176;51.140;6.290;2023-12-07T06:39:52;192.98;;;60.33;;
25231;SDS011;13176;51.140;6.290;2023-12-07T06:42:18;89.10;;;52.53;;
25231;SDS011;13176;51.140;6.290;2023-12-07T06:44:48;74.63;;;50.85;;
25231;SDS011;13176;51.140;6.290;2023-12-07T06:47:15;263.55;;;64.75;;
25231;SDS011;13176;51.140;6.290;2023-12-07T06:49:42;56.45;;;50.58;;
25231;SDS011;13176;51.140;6.290;2023-12-07T06:52:18;54.65;;;48.85;;
25231;SDS011;13176;51.140;6.290;2023-12-07T06:54:44;137.90;;;56.97;;
25231;SDS011;13176;51.140;6.290;2023-12-07T06:57:11;71.45;;;50.00;;
25231;SDS011;13176;51.140;6.290;2023-12-07T06:59:38;69.85;;;50.20;;
25231;SDS011;13176;51.140;6.290;2023-12-07T07:02:04;98.88;;;49.35;;
25231;SDS011;13176;51.140;6.290;2023-12-07T07:04:31;217.38;;;57.17;;
25231;SDS011;13176;51.140;6.290;2023-12-07T07:06:58;673.15;;;83.65;;
25231;SDS011;13176;51.140;6.290;2023-12-07T07:09:24;263.98;;;55.97;;
25231;SDS011;13176;51.140;6.290;2023-12-07T07:11:51;55.30;;;42.88;;
25231;SDS011;13176;51.140;6.290;2023-12-07T07:14:19;91.20;;;44.95;;
25231;SDS011;13176;51.140;6.290;2023-12-07T07:16:45;241.25;;;53.15;;
25231;SDS011;13176;51.140;6.290;2023-12-07T07:19:13;466.30;;;66.57;;
25231;SDS011;13176;51.140;6.290;2023-12-07T07:21:40;385.48;;;64.07;;
25231;SDS011;13176;51.140;6.290;2023-12-07T07:24:06;85.22;;;39.92;;
25231;SDS011;13176;51.140;6.290;2023-12-07T07:26:35;96.10;;;38.10;;
25231;SDS011;13176;51.140;6.290;2023-12-07T07:29:01;154.75;;;43.53;;
25231;SDS011;13176;51.140;6.290;2023-12-07T07:31:29;205.23;;;47.10;;
25231;SDS011;13176;51.140;6.290;2023-12-07T07:33:56;40.25;;;35.72;;
25231;SDS011;13176;51.140;6.290;2023-12-07T07:36:26;124.90;;;39.55;;
25231;SDS011;13176;51.140;6.290;2023-12-07T07:38:53;192.50;;;43.72;;
25231;SDS011;13176;51.140;6.290;2023-12-07T07:41:20;137.35;;;37.45;;
25231;SDS011;13176;51.140;6.290;2023-12-07T07:43:46;386.60;;;57.42;;
25231;SDS011;13176;51.140;6.290;2023-12-07T07:46:14;92.57;;;36.90;;
25231;SDS011;13176;51.140;6.290;2023-12-07T07:48:40;572.15;;;64.68;;
25231;SDS011;13176;51.140;6.290;2023-12-07T07:51:07;37.35;;;30.85;;
25231;SDS011;13176;51.140;6.290;2023-12-07T07:53:34;173.23;;;40.03;;
25231;SDS011;13176;51.140;6.290;2023-12-07T07:56:00;127.47;;;35.58;;
25231;SDS011;13176;51.140;6.290;2023-12-07T07:58:29;180.85;;;37.97;;
25231;SDS011;13176;51.140;6.290;2023-12-07T08:00:55;257.27;;;44.03;;
25231;SDS011;13176;51.140;6.290;2023-12-07T08:03:22;74.07;;;32.47;;
25231;SDS011;13176;51.140;6.290;2023-12-07T08:05:49;138.10;;;37.40;;
25231;SDS011;13176;51.140;6.290;2023-12-07T08:08:16;296.20;;;51.20;;
25231;SDS011;13176;51.140;6.290;2023-12-07T08:10:42;191.52;;;43.97;;
25231;SDS011;13176;51.140;6.290;2023-12-07T08:13:21;84.55;;;41.78;;
25231;SDS011;13176;51.140;6.290;2023-12-07T08:15:48;188.88;;;49.85;;
25231;SDS011;13176;51.140;6.290;2023-12-07T08:18:15;178.32;;;45.17;;
25231;SDS011;13176;51.140;6.290;2023-12-07T08:20:42;193.30;;;50.90;;
25231;SDS011;13176;51.140;6.290;2023-12-07T08:23:08;102.18;;;44.83;;
25231;SDS011;13176;51.140;6.290;2023-12-07T08:25:38;135.88;;;47.22;;
25231;SDS011;13176;51.140;6.290;2023-12-07T08:28:05;49.53;;;43.85;;
25231;SDS011;13176;51.140;6.290;2023-12-07T08:30:31;79.03;;;45.70;;
25231;SDS011;13176;51.140;6.290;2023-12-07T08:32:58;80.32;;;48.88;;
25231;SDS011;13176;51.140;6.290;2023-12-07T08:35:25;277.73;;;59.80;;
25231;SDS011;13176;51.140;6.290;2023-12-07T08:37:51;47.00;;;42.35;;
25231;SDS011;13176;51.140;6.290;2023-12-07T08:40:18;170.40;;;52.15;;
25231;SDS011;13176;51.140;6.290;2023-12-07T08:42:45;101.03;;;45.65;;
25231;SDS011;13176;51.140;6.290;2023-12-07T08:45:16;96.63;;;43.60;;
25231;SDS011;13176;51.140;6.290;2023-12-07T08:47:42;72.60;;;41.13;;
25231;SDS011;13176;51.140;6.290;2023-12-07T08:50:09;80.47;;;41.95;;
25231;SDS011;13176;51.140;6.290;2023-12-07T08:52:35;39.60;;;35.80;;
25231;SDS011;13176;51.140;6.290;2023-12-07T08:55:12;39.92;;;33.65;;
25231;SDS011;13176;51.140;6.290;2023-12-07T08:57:41;51.20;;;34.28;;
25231;SDS011;13176;51.140;6.290;2023-12-07T09:00:08;43.50;;;32.25;;
25231;SDS011;13176;51.140;6.290;2023-12-07T09:02:35;42.95;;;34.08;;
25231;SDS011;13176;51.140;6.290;2023-12-07T09:05:12;40.97;;;33.15;;
25231;SDS011;13176;51.140;6.290;2023-12-07T09:07:38;38.65;;;34.47;;
25231;SDS011;13176;51.140;6.290;2023-12-07T09:10:05;36.47;;;32.58;;
25231;SDS011;13176;51.140;6.290;2023-12-07T09:12:33;39.72;;;31.70;;
25231;SDS011;13176;51.140;6.290;2023-12-07T09:15:05;36.20;;;32.58;;
25231;SDS011;13176;51.140;6.290;2023-12-07T09:17:33;36.75;;;31.02;;
25231;SDS011;13176;51.140;6.290;2023-12-07T09:20:00;35.58;;;32.42;;
25231;SDS011;13176;51.140;6.290;2023-12-07T09:22:27;33.65;;;30.30;;
25231;SDS011;13176;51.140;6.290;2023-12-07T09:25:03;35.15;;;31.95;;
25231;SDS011;13176;51.140;6.290;2023-12-07T09:27:29;35.38;;;32.13;;
25231;SDS011;13176;51.140;6.290;2023-12-07T09:29:58;33.10;;;30.05;;
25231;SDS011;13176;51.140;6.290;2023-12-07T09:32:24;34.80;;;31.25;;
25231;SDS011;13176;51.140;6.290;2023-12-07T09:35:01;34.53;;;31.13;;
25231;SDS011;13176;51.140;6.290;2023-12-07T09:37:28;33.72;;;30.23;;
25231;SDS011;13176;51.140;6.290;2023-12-07T09:39:55;33.75;;;30.67;;
25231;SDS011;13176;51.140;6.290;2023-12-07T09:45:02;32.90;;;27.17;;
25231;SDS011;13176;51.140;6.290;2023-12-07T09:47:28;33.42;;;30.23;;
25231;SDS011;13176;51.140;6.290;2023-12-07T09:50:03;34.20;;;31.10;;
25231;SDS011;13176;51.140;6.290;2023-12-07T09:52:31;35.63;;;32.40;;
25231;SDS011;13176;51.140;6.290;2023-12-07T09:54:58;36.67;;;32.97;;
25231;SDS011;13176;51.140;6.290;2023-12-07T09:57:25;36.17;;;33.08;;
25231;SDS011;13176;51.140;6.290;2023-12-07T09:59:56;38.28;;;34.83;;
25231;SDS011;13176;51.140;6.290;2023-12-07T10:02:22;38.15;;;34.75;;
25231;SDS011;13176;51.140;6.290;2023-12-07T10:05:05;36.40;;;32.78;;
25231;SDS011;13176;51.140;6.290;2023-12-07T10:07:43;34.83;;;31.73;;
25231;SDS011;13176;51.140;6.290;2023-12-07T10:10:12;35.83;;;32.22;;
25231;SDS011;13176;51.140;6.290;2023-12-07T10:12:53;35.15;;;32.05;;
25231;SDS011;13176;51.140;6.290;2023-12-07T10:15:21;39.15;;;35.17;;
25231;SDS011;13176;51.140;6.290;2023-12-07T10:17:53;40.05;;;36.45;;
25231;SDS011;13176;51.140;6.290;2023-12-07T10:20:21;38.90;;;35.40;;
25231;SDS011;13176;51.140;6.290;2023-12-07T10:25:35;36.55;;;33.17;;
25231;SDS011;13176;51.140;6.290;2023-12-07T10:28:06;35.28;;;32.47;;
25231;SDS011;13176;51.140;6.290;2023-12-07T10:30:34;35.08;;;32.28;;
25231;SDS011;13176;51.140;6.290;2023-12-07T10:33:04;34.20;;;31.20;;
25231;SDS011;13176;51.140;6.290;2023-12-07T10:35:37;35.22;;;32.33;;
25231;SDS011;13176;51.140;6.290;2023-12-07T10:38:10;38.47;;;35.10;;
25231;SDS011;13176;51.140;6.290;2023-12-07T10:40:39;37.30;;;33.88;;
25231;SDS011;13176;51.140;6.290;2023-12-07T10:43:07;36.55;;;33.40;;
25231;SDS011;13176;51.140;6.290;2023-12-07T10:45:35;36.92;;;33.67;;
25231;SDS011;13176;51.140;6.290;2023-12-07T10:48:06;37.35;;;33.83;;
25231;SDS011;13176;51.140;6.290;2023-12-07T10:50:35;34.38;;;31.58;;
25231;SDS011;13176;51.140;6.290;2023-12-07T10:53:09;32.35;;;29.58;;
25231;SDS011;13176;51.140;6.290;2023-12-07T10:55:45;31.08;;;28.02;;
25231;SDS011;13176;51.140;6.290;2023-12-07T10:58:16;30.60;;;28.05;;
25231;SDS011;13176;51.140;6.290;2023-12-07T11:00:44;31.88;;;29.00;;
25231;SDS011;13176;51.140;6.290;2023-12-07T11:03:16;30.17;;;27.35;;
25231;SDS011;13176;51.140;6.290;2023-12-07T11:05:44;30.20;;;27.40;;
25231;SDS011;13176;51.140;6.290;2023-12-07T11:08:36;29.92;;;27.33;;
25231;SDS011;13176;51.140;6.290;2023-12-07T11:11:24;30.98;;;27.70;;
25231;SDS011;13176;51.140;6.290;2023-12-07T11:14:02;33.95;;;30.88;;
25231;SDS011;13176;51.140;6.290;2023-12-07T11:16:36;29.02;;;26.60;;
25231;SDS011;13176;51.140;6.290;2023-12-07T11:21:38;25.38;;;22.88;;
25231;SDS011;13176;51.140;6.290;2023-12-07T11:24:07;25.40;;;23.15;;
25231;SDS011;13176;51.140;6.290;2023-12-07T11:26:34;25.27;;;23.08;;
25231;SDS011;13176;51.140;6.290;2023-12-07T11:29:01;21.83;;;19.85;;
25231;SDS011;13176;51.140;6.290;2023-12-07T11:31:27;21.38;;;19.17;;
25231;SDS011;13176;51.140;6.290;2023-12-07T11:33:54;20.90;;;18.75;;
25231;SDS011;13176;51.140;6.290;2023-12-07T11:36:21;20.38;;;18.33;;
25231;SDS011;13176;51.140;6.290;2023-12-07T11:41:30;19.48;;;17.60;;
25231;SDS011;13176;51.140;6.290;2023-12-07T11:44:00;20.80;;;18.90;;
25231;SDS011;13176;51.140;6.290;2023-12-07T11:46:27;21.40;;;19.30;;
25231;SDS011;13176;51.140;6.290;2023-12-07T11:48:55;20.02;;;18.42;;
25231;SDS011;13176;51.140;6.290;2023-12-07T11:51:22;22.98;;;20.90;;
25231;SDS011;13176;51.140;6.290;2023-12-07T11:53:49;23.15;;;21.23;;
25231;SDS011;13176;51.140;6.290;2023-12-07T11:56:18;24.30;;;22.33;;
25231;SDS011;13176;51.140;6.290;2023-12-07T11:58:48;24.95;;;23.15;;
25231;SDS011;13176;51.140;6.290;2023-12-07T12:01:16;25.35;;;22.63;;
25231;SDS011;13176;51.140;6.290;2023-12-07T12:03:43;26.17;;;24.10;;
25231;SDS011;13176;51.140;6.290;2023-12-07T12:06:10;27.30;;;25.23;;
25231;SDS011;13176;51.140;6.290;2023-12-07T12:08:39;26.20;;;24.08;;
25231;SDS011;13176;51.140;6.290;2023-12-07T12:11:07;27.48;;;25.17;;
25231;SDS011;13176;51.140;6.290;2023-12-07T12:13:35;26.73;;;24.65;;
25231;SDS011;13176;51.140;6.290;2023-12-07T12:16:03;26.27;;;24.08;;
25231;SDS011;13176;51.140;6.290;2023-12-07T12:18:35;25.67;;;23.67;;
25231;SDS011;13176;51.140;6.290;2023-12-07T12:21:03;25.25;;;23.33;;
25231;SDS011;13176;51.140;6.290;2023-12-07T12:23:30;22.52;;;20.75;;
25231;SDS011;13176;51.140;6.290;2023-12-07T12:25:56;22.55;;;20.67;;
25231;SDS011;13176;51.140;6.290;2023-12-07T12:28:24;20.55;;;18.88;;
25231;SDS011;13176;51.140;6.290;2023-12-07T12:30:52;19.35;;;17.85;;
25231;SDS011;13176;51.140;6.290;2023-12-07T12:33:19;19.67;;;17.98;;
25231;SDS011;13176;51.140;6.290;2023-12-07T12:35:45;19.05;;;17.45;;
25231;SDS011;13176;51.140;6.290;2023-12-07T12:38:12;19.17;;;17.48;;
25231;SDS011;13176;51.140;6.290;2023-12-07T12:40:53;19.48;;;17.25;;
25231;SDS011;13176;51.140;6.290;2023-12-07T12:43:22;19.73;;;18.02;;
25231;SDS011;13176;51.140;6.290;2023-12-07T12:45:49;18.80;;;17.20;;
25231;SDS011;13176;51.140;6.290;2023-12-07T12:48:31;18.52;;;16.75;;
25231;SDS011;13176;51.140;6.290;2023-12-07T12:51:03;19.33;;;17.73;;
25231;SDS011;13176;51.140;6.290;2023-12-07T12:53:33;18.05;;;16.70;;
25231;SDS011;13176;51.140;6.290;2023-12-07T12:56:00;18.70;;;17.05;;
25231;SDS011;13176;51.140;6.290;2023-12-07T12:58:28;17.48;;;16.02;;
25231;SDS011;13176;51.140;6.290;2023-12-07T13:00:56;18.33;;;16.73;;
25231;SDS011;13176;51.140;6.290;2023-12-07T13:03:23;19.10;;;17.17;;
25231;SDS011;13176;51.140;6.290;2023-12-07T13:05:49;18.38;;;16.85;;
25231;SDS011;13176;51.140;6.290;2023-12-07T13:08:15;18.25;;;16.75;;
25231;SDS011;13176;51.140;6.290;2023-12-07T13:10:42;19.25;;;17.55;;
25231;SDS011;13176;51.140;6.290;2023-12-07T13:13:09;18.98;;;17.27;;
25231;SDS011;13176;51.140;6.290;2023-12-07T13:15:36;18.25;;;16.70;;
25231;SDS011;13176;51.140;6.290;2023-12-07T13:18:03;18.67;;;17.13;;
25231;SDS011;13176;51.140;6.290;2023-12-07T13:20:33;17.55;;;16.13;;
25231;SDS011;13176;51.140;6.290;2023-12-07T13:23:18;18.42;;;16.58;;
25231;SDS011;13176;51.140;6.290;2023-12-07T13:25:45;17.42;;;16.02;;
25231;SDS011;13176;51.140;6.290;2023-12-07T13:28:12;18.58;;;17.10;;
25231;SDS011;13176;51.140;6.290;2023-12-07T13:30:38;18.35;;;16.95;;
25231;SDS011;13176;51.140;6.290;2023-12-07T13:33:05;18.65;;;17.05;;
25231;SDS011;13176;51.140;6.290;2023-12-07T13:35:47;17.38;;;15.98;;
25231;SDS011;13176;51.140;6.290;2023-12-07T13:38:14;17.48;;;16.05;;
25231;SDS011;13176;51.140;6.290;2023-12-07T13:40:41;17.17;;;15.68;;
25231;SDS011;13176;51.140;6.290;2023-12-07T13:43:07;15.45;;;14.15;;
25231;SDS011;13176;51.140;6.290;2023-12-07T13:45:35;14.63;;;13.43;;
25231;SDS011;13176;51.140;6.290;2023-12-07T13:48:02;16.25;;;14.68;;
25231;SDS011;13176;51.140;6.290;2023-12-07T13:50:28;16.90;;;15.40;;
25231;SDS011;13176;51.140;6.290;2023-12-07T13:52:55;15.82;;;14.48;;
25231;SDS011;13176;51.140;6.290;2023-12-07T13:55:21;15.98;;;14.55;;
25231;SDS011;13176;51.140;6.290;2023-12-07T13:57:50;14.07;;;12.80;;
25231;SDS011;13176;51.140;6.290;2023-12-07T14:00:19;14.70;;;13.40;;
25231;SDS011;13176;51.140;6.290;2023-12-07T14:02:46;16.30;;;13.90;;
25231;SDS011;13176;51.140;6.290;2023-12-07T14:05:13;14.30;;;12.85;;
25231;SDS011;13176;51.140;6.290;2023-12-07T14:07:39;16.20;;;14.05;;
25231;SDS011;13176;51.140;6.290;2023-12-07T14:10:06;15.38;;;13.98;;
25231;SDS011;13176;51.140;6.290;2023-12-07T14:12:34;14.15;;;12.93;;
25231;SDS011;13176;51.140;6.290;2023-12-07T14:15:00;14.88;;;13.68;;
25231;SDS011;13176;51.140;6.290;2023-12-07T14:17:27;14.90;;;13.60;;
25231;SDS011;13176;51.140;6.290;2023-12-07T14:20:06;15.27;;;13.80;;
25231;SDS011;13176;51.140;6.290;2023-12-07T14:22:54;16.25;;;14.55;;
25231;SDS011;13176;51.140;6.290;2023-12-07T14:25:21;15.15;;;13.77;;
25231;SDS011;13176;51.140;6.290;2023-12-07T14:27:48;15.73;;;14.13;;
25231;SDS011;13176;51.140;6.290;2023-12-07T14:30:14;15.68;;;14.18;;
25231;SDS011;13176;51.140;6.290;2023-12-07T14:32:43;14.65;;;13.45;;
25231;SDS011;13176;51.140;6.290;2023-12-07T14:35:18;15.25;;;14.00;;
25231;SDS011;13176;51.140;6.290;2023-12-07T14:37:45;15.60;;;14.20;;